KGNR

Greenville Airport

Maine, USA
METAR KGNR 140456Z AUTO 29007G24KT 250V340 M04/M07 A2966 RMK AO1 PK WND 31035/0429 SLP064 T10391067 400061039
Observed Flight Rules
Nov-14 @ 04:56 UTC (8 minutes ago)
Wind
290° at 7 knots
 Gusting to 24 knots
Temperatures Readings
Current -4°C / 25°F
Dewpoint -7°C / 19°F
Humidity 80%
Altimeter 29.66" Hg
Pressure 1006.4 hPa
Elevation 427
METAR KGNR 140456Z AUTO 29007G24KT 250V340 M04/M07 A2966 RMK AO1 PK WND 31035/0429 SLP064 T10391067 400061039
Observed Flight Rules
Nov-14 @ 04:56 UTC
(8 minutes ago)
Wind
290° at 7 knots
 Gusting to 24 knots
Temperature Dewpoint
-4°C / 25°F -7°C / 19°F
Humidity Altimeter Pressure
80% 29.66" Hg 1006.4 hPa